sensor_id;sensor_type;location;lat;lon;timestamp;pressure;altitude;pressure_sealevel;temperature;humidity
85376;BME280;75780;43.986;22.860;2024-02-14T00:01:28;101159.09;;;8.63;58.10
85376;BME280;75780;43.986;22.860;2024-02-14T00:03:54;101158.22;;;8.62;58.08
85376;BME280;75780;43.986;22.860;2024-02-14T00:06:19;101157.34;;;8.62;56.87
85376;BME280;75780;43.986;22.860;2024-02-14T00:08:44;101113.53;;;8.27;57.87
85376;BME280;75780;43.986;22.860;2024-02-14T00:11:10;101142.78;;;8.41;57.76
85376;BME280;75780;43.986;22.860;2024-02-14T00:13:36;101082.56;;;8.00;57.74
85376;BME280;75780;43.986;22.860;2024-02-14T00:16:01;101133.31;;;8.27;57.97
85376;BME280;75780;43.986;22.860;2024-02-14T00:18:28;101131.59;;;8.29;57.62
85376;BME280;75780;43.986;22.860;2024-02-14T00:20:54;101160.00;;;8.41;57.81
85376;BME280;75780;43.986;22.860;2024-02-14T00:23:20;101174.59;;;8.45;57.03
85376;BME280;75780;43.986;22.860;2024-02-14T00:25:45;101138.47;;;8.24;57.21
85376;BME280;75780;43.986;22.860;2024-02-14T00:28:11;101136.75;;;8.15;58.25
85376;BME280;75780;43.986;22.860;2024-02-14T00:30:36;101190.09;;;8.45;58.21
85376;BME280;75780;43.986;22.860;2024-02-14T00:33:01;101195.28;;;8.48;55.83
85376;BME280;75780;43.986;22.860;2024-02-14T00:35:27;101149.66;;;8.24;57.07
85376;BME280;75780;43.986;22.860;2024-02-14T00:37:52;101156.53;;;8.19;58.06
85376;BME280;75780;43.986;22.860;2024-02-14T00:40:18;101195.28;;;8.40;56.94
85376;BME280;75780;43.986;22.860;2024-02-14T00:42:43;101195.28;;;8.33;56.51
85376;BME280;75780;43.986;22.860;2024-02-14T00:45:09;101181.53;;;8.28;57.63
85376;BME280;75780;43.986;22.860;2024-02-14T00:47:35;101206.47;;;8.36;58.67
85376;BME280;75780;43.986;22.860;2024-02-14T00:50:01;101199.59;;;8.37;57.66
85376;BME280;75780;43.986;22.860;2024-02-14T00:52:27;101187.53;;;8.18;57.63
85376;BME280;75780;43.986;22.860;2024-02-14T00:54:52;101160.84;;;8.03;58.52
85376;BME280;75780;43.986;22.860;2024-02-14T00:57:18;101173.75;;;8.00;58.56
85376;BME280;75780;43.986;22.860;2024-02-14T00:59:44;101211.63;;;8.20;58.23
85376;BME280;75780;43.986;22.860;2024-02-14T01:02:10;101169.44;;;7.90;58.20
85376;BME280;75780;43.986;22.860;2024-02-14T01:04:36;101207.31;;;8.05;57.72
85376;BME280;75780;43.986;22.860;2024-02-14T01:07:03;101203.84;;;8.04;59.52
85376;BME280;75780;43.986;22.860;2024-02-14T01:09:28;101178.91;;;7.88;58.36
85376;BME280;75780;43.986;22.860;2024-02-14T01:11:54;101209.91;;;8.03;59.29
85376;BME280;75780;43.986;22.860;2024-02-14T01:14:19;101158.25;;;7.73;58.88
85376;BME280;75780;43.986;22.860;2024-02-14T01:16:46;101218.47;;;8.07;58.55
85376;BME280;75780;43.986;22.860;2024-02-14T01:19:12;101209.03;;;7.98;58.83
85376;BME280;75780;43.986;22.860;2024-02-14T01:21:37;101221.91;;;7.97;58.22
85376;BME280;75780;43.986;22.860;2024-02-14T01:24:03;101172.88;;;7.74;58.33
85376;BME280;75780;43.986;22.860;2024-02-14T01:26:30;101174.59;;;7.84;58.26
85376;BME280;75780;43.986;22.860;2024-02-14T01:28:56;101169.41;;;7.65;58.16
85376;BME280;75780;43.986;22.860;2024-02-14T01:31:21;101178.88;;;7.69;58.59
85376;BME280;75780;43.986;22.860;2024-02-14T01:33:47;101178.03;;;7.71;58.43
85376;BME280;75780;43.986;22.860;2024-02-14T01:36:13;101223.66;;;7.96;58.67
85376;BME280;75780;43.986;22.860;2024-02-14T01:38:38;101205.59;;;8.01;58.46
85376;BME280;75780;43.986;22.860;2024-02-14T01:41:05;101231.41;;;8.08;58.63
85376;BME280;75780;43.986;22.860;2024-02-14T01:43:30;101221.94;;;8.12;58.02
85376;BME280;75780;43.986;22.860;2024-02-14T01:46:05;101208.16;;;8.07;57.34
85376;BME280;75780;43.986;22.860;2024-02-14T01:48:31;101176.31;;;7.97;57.08
85376;BME280;75780;43.986;22.860;2024-02-14T01:50:57;101181.47;;;7.94;56.04
85376;BME280;75780;43.986;22.860;2024-02-14T01:53:24;101174.59;;;7.93;57.08
85376;BME280;75780;43.986;22.860;2024-02-14T01:55:51;101183.22;;;7.98;57.57
85376;BME280;75780;43.986;22.860;2024-02-14T01:58:17;101178.91;;;7.96;57.25
85376;BME280;75780;43.986;22.860;2024-02-14T02:00:43;101234.91;;;8.27;55.59
85376;BME280;75780;43.986;22.860;2024-02-14T02:03:09;101185.78;;;8.01;57.19
85376;BME280;75780;43.986;22.860;2024-02-14T02:05:35;101247.81;;;8.36;56.08
85376;BME280;75780;43.986;22.860;2024-02-14T02:08:01;101240.03;;;8.38;55.67
85376;BME280;75780;43.986;22.860;2024-02-14T02:10:26;101245.22;;;8.36;56.28
85376;BME280;75780;43.986;22.860;2024-02-14T02:12:58;101203.88;;;8.24;55.67
85376;BME280;75780;43.986;22.860;2024-02-14T02:15:24;101234.88;;;8.44;55.03
85376;BME280;75780;43.986;22.860;2024-02-14T02:17:49;101221.09;;;8.31;55.62
85376;BME280;75780;43.986;22.860;2024-02-14T02:20:18;101197.84;;;8.18;54.74
85376;BME280;75780;43.986;22.860;2024-02-14T02:22:47;101246.09;;;8.37;54.59
85376;BME280;75780;43.986;22.860;2024-02-14T02:25:13;101241.78;;;8.37;56.48
85376;BME280;75780;43.986;22.860;2024-02-14T02:27:39;101246.94;;;8.37;56.56
85376;BME280;75780;43.986;22.860;2024-02-14T02:30:06;101265.00;;;8.43;56.43
85376;BME280;75780;43.986;22.860;2024-02-14T02:32:32;101178.91;;;7.93;55.19
85376;BME280;75780;43.986;22.860;2024-02-14T02:34:57;101273.59;;;8.42;55.03
85376;BME280;75780;43.986;22.860;2024-02-14T02:37:24;101264.16;;;8.38;55.26
85376;BME280;75780;43.986;22.860;2024-02-14T02:39:50;101274.47;;;8.35;53.85
85376;BME280;75780;43.986;22.860;2024-02-14T02:42:16;101269.31;;;8.29;56.09
85376;BME280;75780;43.986;22.860;2024-02-14T02:44:46;101236.53;;;7.99;54.39
85376;BME280;75780;43.986;22.860;2024-02-14T02:47:11;101250.34;;;8.10;54.16
85376;BME280;75780;43.986;22.860;2024-02-14T02:49:38;101289.94;;;8.22;56.35
85376;BME280;75780;43.986;22.860;2024-02-14T02:52:03;101289.94;;;8.25;55.10
85376;BME280;75780;43.986;22.860;2024-02-14T02:54:29;101248.59;;;7.96;56.66
85376;BME280;75780;43.986;22.860;2024-02-14T02:56:54;101291.63;;;8.13;55.96
85376;BME280;75780;43.986;22.860;2024-02-14T02:59:20;101298.50;;;8.11;55.78
85376;BME280;75780;43.986;22.860;2024-02-14T03:01:45;101304.53;;;8.12;55.35
85376;BME280;75780;43.986;22.860;2024-02-14T03:04:11;101297.63;;;8.06;56.17
85376;BME280;75780;43.986;22.860;2024-02-14T03:06:38;101299.34;;;8.04;56.66
85376;BME280;75780;43.986;22.860;2024-02-14T03:09:04;101308.81;;;8.04;56.58
85376;BME280;75780;43.986;22.860;2024-02-14T03:11:31;101319.16;;;8.01;55.36
85376;BME280;75780;43.986;22.860;2024-02-14T03:13:56;101267.44;;;7.75;56.28
85376;BME280;75780;43.986;22.860;2024-02-14T03:16:22;101326.00;;;7.91;55.88
85376;BME280;75780;43.986;22.860;2024-02-14T03:18:49;101267.44;;;7.69;55.96
85376;BME280;75780;43.986;22.860;2024-02-14T03:21:15;101279.47;;;7.67;55.86
85376;BME280;75780;43.986;22.860;2024-02-14T03:23:40;101270.81;;;7.56;56.49
85376;BME280;75780;43.986;22.860;2024-02-14T03:26:06;101276.00;;;7.58;55.79
85376;BME280;75780;43.986;22.860;2024-02-14T03:28:33;101297.53;;;7.67;56.52
85376;BME280;75780;43.986;22.860;2024-02-14T03:30:59;101344.03;;;7.85;57.35
85376;BME280;75780;43.986;22.860;2024-02-14T03:33:24;101299.22;;;7.62;55.29
85376;BME280;75780;43.986;22.860;2024-02-14T03:35:50;101345.75;;;7.77;57.67
85376;BME280;75780;43.986;22.860;2024-02-14T03:38:28;101356.97;;;7.87;55.54
85376;BME280;75780;43.986;22.860;2024-02-14T03:40:54;101329.28;;;7.54;58.41
85376;BME280;75780;43.986;22.860;2024-02-14T03:43:19;101332.72;;;7.56;56.78
85376;BME280;75780;43.986;22.860;2024-02-14T03:45:45;101364.59;;;7.70;58.64
85376;BME280;75780;43.986;22.860;2024-02-14T03:48:11;101322.31;;;7.38;59.31
85376;BME280;75780;43.986;22.860;2024-02-14T03:50:40;101369.72;;;7.60;57.99
85376;BME280;75780;43.986;22.860;2024-02-14T03:53:05;101376.56;;;7.53;59.11
85376;BME280;75780;43.986;22.860;2024-02-14T03:55:31;101364.41;;;7.35;59.62
85376;BME280;75780;43.986;22.860;2024-02-14T03:57:56;101381.66;;;7.42;58.25
85376;BME280;75780;43.986;22.860;2024-02-14T04:00:22;101380.78;;;7.40;59.84
85376;BME280;75780;43.986;22.860;2024-02-14T04:02:48;101378.16;;;7.34;58.89
85376;BME280;75780;43.986;22.860;2024-02-14T04:05:14;101389.31;;;7.29;58.71
85376;BME280;75780;43.986;22.860;2024-02-14T04:07:40;101342.78;;;7.08;58.97
85376;BME280;75780;43.986;22.860;2024-02-14T04:10:06;101327.28;;;7.05;57.23
85376;BME280;75780;43.986;22.860;2024-02-14T04:12:32;101387.63;;;7.35;57.53
85376;BME280;75780;43.986;22.860;2024-02-14T04:14:57;101325.53;;;6.98;57.91
85376;BME280;75780;43.986;22.860;2024-02-14T04:17:23;101374.63;;;7.19;57.97
85376;BME280;75780;43.986;22.860;2024-02-14T04:19:49;101384.94;;;7.20;58.92
85376;BME280;75780;43.986;22.860;2024-02-14T04:22:15;101337.53;;;6.96;57.49
85376;BME280;75780;43.986;22.860;2024-02-14T04:24:40;101340.94;;;6.93;57.27
85376;BME280;75780;43.986;22.860;2024-02-14T04:27:06;101384.97;;;7.25;56.61
85376;BME280;75780;43.986;22.860;2024-02-14T04:29:32;101367.69;;;7.09;56.44
85376;BME280;75780;43.986;22.860;2024-02-14T04:32:02;101337.53;;;6.96;56.50
85376;BME280;75780;43.986;22.860;2024-02-14T04:34:28;101337.50;;;6.93;56.74
85376;BME280;75780;43.986;22.860;2024-02-14T04:36:53;101396.16;;;7.24;57.71
85376;BME280;75780;43.986;22.860;2024-02-14T04:39:19;101385.88;;;7.27;56.38
85376;BME280;75780;43.986;22.860;2024-02-14T04:41:44;101393.59;;;7.30;56.76
85376;BME280;75780;43.986;22.860;2024-02-14T04:44:10;101341.81;;;6.98;57.58
85376;BME280;75780;43.986;22.860;2024-02-14T04:46:35;101377.19;;;7.16;57.46
85376;BME280;75780;43.986;22.860;2024-02-14T04:49:03;101359.91;;;7.03;57.16
85376;BME280;75780;43.986;22.860;2024-02-14T04:51:31;101346.94;;;6.94;56.30
85376;BME280;75780;43.986;22.860;2024-02-14T04:53:57;101365.91;;;7.03;57.38
85376;BME280;75780;43.986;22.860;2024-02-14T04:56:28;101405.56;;;7.19;57.03
85376;BME280;75780;43.986;22.860;2024-02-14T04:58:54;101396.06;;;7.12;58.19
85376;BME280;75780;43.986;22.860;2024-02-14T05:01:20;101418.50;;;7.28;57.34
85376;BME280;75780;43.986;22.860;2024-02-14T05:03:46;101377.84;;;6.94;57.24
85376;BME280;75780;43.986;22.860;2024-02-14T05:06:11;101402.06;;;7.08;56.92
85376;BME280;75780;43.986;22.860;2024-02-14T05:08:36;101432.25;;;7.24;57.51
85376;BME280;75780;43.986;22.860;2024-02-14T05:11:02;101427.00;;;7.18;57.06
85376;BME280;75780;43.986;22.860;2024-02-14T05:13:29;101430.50;;;7.21;56.71
85376;BME280;75780;43.986;22.860;2024-02-14T05:15:55;101386.41;;;6.90;57.28
85376;BME280;75780;43.986;22.860;2024-02-14T05:18:20;101414.00;;;7.01;57.22
85376;BME280;75780;43.986;22.860;2024-02-14T05:20:46;101393.28;;;6.86;57.53
85376;BME280;75780;43.986;22.860;2024-02-14T05:23:11;101439.78;;;7.01;57.87
85376;BME280;75780;43.986;22.860;2024-02-14T05:25:37;101450.16;;;7.07;57.71
85376;BME280;75780;43.986;22.860;2024-02-14T05:28:03;101456.13;;;7.05;57.09
85376;BME280;75780;43.986;22.860;2024-02-14T05:30:28;101450.91;;;6.99;58.26
85376;BME280;75780;43.986;22.860;2024-02-14T05:32:54;101412.94;;;6.78;57.25
85376;BME280;75780;43.986;22.860;2024-02-14T05:35:21;101409.47;;;6.71;58.51
85376;BME280;75780;43.986;22.860;2024-02-14T05:37:47;101472.44;;;7.02;57.75
85376;BME280;75780;43.986;22.860;2024-02-14T05:40:15;101482.69;;;7.01;57.58
85376;BME280;75780;43.986;22.860;2024-02-14T05:42:40;101438.66;;;6.73;57.35
85376;BME280;75780;43.986;22.860;2024-02-14T05:45:06;101489.66;;;7.08;58.72
85376;BME280;75780;43.986;22.860;2024-02-14T05:47:35;101498.25;;;7.08;58.89
85376;BME280;75780;43.986;22.860;2024-02-14T05:50:00;101445.53;;;6.74;57.49
85376;BME280;75780;43.986;22.860;2024-02-14T05:52:26;101486.06;;;6.94;57.28
85376;BME280;75780;43.986;22.860;2024-02-14T05:54:51;101452.38;;;6.72;57.03
85376;BME280;75780;43.986;22.860;2024-02-14T05:57:18;101502.56;;;7.08;57.23
85376;BME280;75780;43.986;22.860;2024-02-14T05:59:44;101460.19;;;6.82;57.01
85376;BME280;75780;43.986;22.860;2024-02-14T06:02:09;101467.03;;;6.80;57.26
85376;BME280;75780;43.986;22.860;2024-02-14T06:04:35;101462.72;;;6.75;58.13
85376;BME280;75780;43.986;22.860;2024-02-14T06:07:01;101515.38;;;7.03;58.63
85376;BME280;75780;43.986;22.860;2024-02-14T06:09:28;101526.63;;;7.10;58.36
85376;BME280;75780;43.986;22.860;2024-02-14T06:11:53;101528.25;;;7.02;58.81
85376;BME280;75780;43.986;22.860;2024-02-14T06:14:19;101515.22;;;6.87;58.09
85376;BME280;75780;43.986;22.860;2024-02-14T06:16:44;101537.56;;;6.89;59.30
85376;BME280;75780;43.986;22.860;2024-02-14T06:19:09;101535.94;;;6.96;57.36
85376;BME280;75780;43.986;22.860;2024-02-14T06:21:36;101529.81;;;6.88;58.59
85376;BME280;75780;43.986;22.860;2024-02-14T06:24:02;101544.66;;;7.11;59.23
85376;BME280;75780;43.986;22.860;2024-02-14T06:26:30;101504.91;;;6.84;58.41
85376;BME280;75780;43.986;22.860;2024-02-14T06:28:56;101549.00;;;7.14;59.29
85376;BME280;75780;43.986;22.860;2024-02-14T06:31:22;101499.91;;;7.02;58.20
85376;BME280;75780;43.986;22.860;2024-02-14T06:33:47;101508.66;;;7.17;57.41
85376;BME280;75780;43.986;22.860;2024-02-14T06:36:13;101518.22;;;7.32;58.25
85376;BME280;75780;43.986;22.860;2024-02-14T06:38:38;101563.88;;;7.42;56.94
85376;BME280;75780;43.986;22.860;2024-02-14T06:41:05;101523.06;;;6.99;58.57
85376;BME280;75780;43.986;22.860;2024-02-14T06:43:30;101542.13;;;7.16;57.72
85376;BME280;75780;43.986;22.860;2024-02-14T06:45:56;101484.44;;;7.02;58.02
85376;BME280;75780;43.986;22.860;2024-02-14T06:48:22;101585.31;;;7.39;57.06
85376;BME280;75780;43.986;22.860;2024-02-14T06:50:49;101520.75;;;7.27;56.33
85376;BME280;75780;43.986;22.860;2024-02-14T06:53:15;101570.00;;;7.53;56.97
85376;BME280;75780;43.986;22.860;2024-02-14T06:55:40;101583.88;;;7.70;55.84
85376;BME280;75780;43.986;22.860;2024-02-14T06:58:06;101577.47;;;7.24;57.33
85376;BME280;75780;43.986;22.860;2024-02-14T07:00:32;101576.50;;;7.18;55.91
85376;BME280;75780;43.986;22.860;2024-02-14T07:02:58;101588.63;;;7.25;57.41
85376;BME280;75780;43.986;22.860;2024-02-14T07:05:24;101524.75;;;6.97;56.77
85376;BME280;75780;43.986;22.860;2024-02-14T07:07:49;101582.63;;;7.27;57.29
85376;BME280;75780;43.986;22.860;2024-02-14T07:10:15;101542.97;;;7.13;55.91
85376;BME280;75780;43.986;22.860;2024-02-14T07:12:40;101541.13;;;7.02;57.42
85376;BME280;75780;43.986;22.860;2024-02-14T07:15:06;101609.44;;;7.43;55.75
85376;BME280;75780;43.986;22.860;2024-02-14T07:17:33;101543.72;;;7.02;56.34
85376;BME280;75780;43.986;22.860;2024-02-14T07:19:58;101551.50;;;7.06;56.86
85376;BME280;75780;43.986;22.860;2024-02-14T07:22:24;101597.38;;;7.40;57.57
85376;BME280;75780;43.986;22.860;2024-02-14T07:24:49;101583.72;;;7.51;55.60
85376;BME280;75780;43.986;22.860;2024-02-14T07:27:15;101548.47;;;7.50;55.65
85376;BME280;75780;43.986;22.860;2024-02-14T07:29:41;101557.94;;;7.54;54.58
85376;BME280;75780;43.986;22.860;2024-02-14T07:32:07;101608.09;;;7.84;55.25
85376;BME280;75780;43.986;22.860;2024-02-14T07:34:32;101615.00;;;7.90;54.76
85376;BME280;75780;43.986;22.860;2024-02-14T07:36:58;101622.06;;;8.13;54.79
85376;BME280;75780;43.986;22.860;2024-02-14T07:39:24;101619.75;;;8.47;53.59
85376;BME280;75780;43.986;22.860;2024-02-14T07:41:50;101629.72;;;8.00;54.41
85376;BME280;75780;43.986;22.860;2024-02-14T07:44:15;101573.84;;;8.03;54.75
85376;BME280;75780;43.986;22.860;2024-02-14T07:46:41;101621.13;;;8.02;54.62
85376;BME280;75780;43.986;22.860;2024-02-14T07:49:06;101584.16;;;8.03;54.96
85376;BME280;75780;43.986;22.860;2024-02-14T07:51:33;101615.38;;;8.37;52.68
85376;BME280;75780;43.986;22.860;2024-02-14T07:54:06;101565.13;;;7.92;54.56
85376;BME280;75780;43.986;22.860;2024-02-14T07:56:31;101622.94;;;8.14;54.25
85376;BME280;75780;43.986;22.860;2024-02-14T07:58:57;101568.47;;;7.78;52.77
85376;BME280;75780;43.986;22.860;2024-02-14T08:01:23;101621.97;;;8.01;54.85
85376;BME280;75780;43.986;22.860;2024-02-14T08:03:49;101561.56;;;7.72;54.09
85376;BME280;75780;43.986;22.860;2024-02-14T08:06:14;101622.00;;;8.04;54.60
85376;BME280;75780;43.986;22.860;2024-02-14T08:08:40;101605.69;;;8.11;54.39
85376;BME280;75780;43.986;22.860;2024-02-14T08:11:06;101613.69;;;8.45;53.07
85376;BME280;75780;43.986;22.860;2024-02-14T08:13:32;101571.50;;;8.43;52.06
85376;BME280;75780;43.986;22.860;2024-02-14T08:15:57;101627.56;;;8.62;52.86
85376;BME280;75780;43.986;22.860;2024-02-14T08:18:26;101613.84;;;8.75;52.21
85376;BME280;75780;43.986;22.860;2024-02-14T08:20:53;101588.97;;;9.01;51.77
85376;BME280;75780;43.986;22.860;2024-02-14T08:23:18;101617.38;;;8.98;51.66
85376;BME280;75780;43.986;22.860;2024-02-14T08:25:45;101626.09;;;9.18;51.42
85376;BME280;75780;43.986;22.860;2024-02-14T08:28:11;101595.81;;;8.90;51.18
85376;BME280;75780;43.986;22.860;2024-02-14T08:30:36;101614.72;;;8.83;50.75
85376;BME280;75780;43.986;22.860;2024-02-14T08:33:03;101593.13;;;8.69;52.03
85376;BME280;75780;43.986;22.860;2024-02-14T08:35:28;101625.22;;;9.16;49.93
85376;BME280;75780;43.986;22.860;2024-02-14T08:37:54;101587.16;;;8.84;50.96
85376;BME280;75780;43.986;22.860;2024-02-14T08:40:20;101622.69;;;9.45;49.98
85376;BME280;75780;43.986;22.860;2024-02-14T08:42:45;101598.53;;;9.41;49.25
85376;BME280;75780;43.986;22.860;2024-02-14T08:45:11;101574.34;;;9.21;48.98
85376;BME280;75780;43.986;22.860;2024-02-14T08:47:37;101597.66;;;9.35;49.84
85376;BME280;75780;43.986;22.860;2024-02-14T08:50:06;101634.75;;;9.40;50.18
85376;BME280;75780;43.986;22.860;2024-02-14T08:52:31;101588.13;;;9.11;50.76
85376;BME280;75780;43.986;22.860;2024-02-14T08:54:57;101579.59;;;9.64;48.66
85376;BME280;75780;43.986;22.860;2024-02-14T08:57:23;101612.38;;;9.86;47.82
85376;BME280;75780;43.986;22.860;2024-02-14T08:59:48;101626.16;;;9.68;49.55
85376;BME280;75780;43.986;22.860;2024-02-14T09:02:14;101635.63;;;9.51;47.40
85376;BME280;75780;43.986;22.860;2024-02-14T09:04:42;101628.69;;;9.33;49.20
85376;BME280;75780;43.986;22.860;2024-02-14T09:07:07;101631.28;;;9.45;47.66
85376;BME280;75780;43.986;22.860;2024-02-14T09:09:33;101649.41;;;9.49;47.74
85376;BME280;75780;43.986;22.860;2024-02-14T09:11:59;101645.97;;;9.56;48.91
85376;BME280;75780;43.986;22.860;2024-02-14T09:14:28;101644.28;;;9.64;47.94
85376;BME280;75780;43.986;22.860;2024-02-14T09:16:54;101636.53;;;9.73;48.45
85376;BME280;75780;43.986;22.860;2024-02-14T09:19:20;101651.19;;;9.87;47.30
85376;BME280;75780;43.986;22.860;2024-02-14T09:21:46;101646.88;;;9.86;47.73
85376;BME280;75780;43.986;22.860;2024-02-14T09:24:12;101652.91;;;9.91;47.15
85376;BME280;75780;43.986;22.860;2024-02-14T09:26:38;101646.00;;;10.01;47.22
85376;BME280;75780;43.986;22.860;2024-02-14T09:29:03;101646.91;;;10.29;46.26
85376;BME280;75780;43.986;22.860;2024-02-14T09:31:30;101635.66;;;10.30;45.39
85376;BME280;75780;43.986;22.860;2024-02-14T09:33:55;101616.69;;;10.23;45.33
85376;BME280;75780;43.986;22.860;2024-02-14T09:36:23;101633.91;;;10.45;45.32
85376;BME280;75780;43.986;22.860;2024-02-14T09:38:49;101595.06;;;10.27;44.71
85376;BME280;75780;43.986;22.860;2024-02-14T09:41:36;101603.69;;;10.50;45.62
85376;BME280;75780;43.986;22.860;2024-02-14T09:44:03;101589.00;;;10.40;44.63
85376;BME280;75780;43.986;22.860;2024-02-14T09:46:29;101638.16;;;10.72;44.72
85376;BME280;75780;43.986;22.860;2024-02-14T09:48:56;101643.25;;;10.95;44.62
85376;BME280;75780;43.986;22.860;2024-02-14T09:51:24;101577.63;;;10.82;44.80
85376;BME280;75780;43.986;22.860;2024-02-14T09:53:50;101578.34;;;11.13;43.36
85376;BME280;75780;43.986;22.860;2024-02-14T09:56:18;101576.47;;;11.33;42.81
85376;BME280;75780;43.986;22.860;2024-02-14T09:58:50;101631.09;;;11.07;42.58
85376;BME280;75780;43.986;22.860;2024-02-14T10:01:21;101626.56;;;11.45;42.94
85376;BME280;75780;43.986;22.860;2024-02-14T10:03:49;101627.53;;;11.28;41.99
85376;BME280;75780;43.986;22.860;2024-02-14T10:06:14;101569.72;;;11.02;41.65
85376;BME280;75780;43.986;22.860;2024-02-14T10:08:41;101580.16;;;10.96;43.12
85376;BME280;75780;43.986;22.860;2024-02-14T10:11:08;101584.31;;;11.27;41.82
85376;BME280;75780;43.986;22.860;2024-02-14T10:13:33;101615.06;;;11.81;41.13
85376;BME280;75780;43.986;22.860;2024-02-14T10:16:00;101614.25;;;11.78;41.36
85376;BME280;75780;43.986;22.860;2024-02-14T10:18:26;101569.28;;;11.73;41.32
85376;BME280;75780;43.986;22.860;2024-02-14T10:20:53;101541.69;;;11.58;41.14
85376;BME280;75780;43.986;22.860;2024-02-14T10:23:19;101564.84;;;11.84;40.26
85376;BME280;75780;43.986;22.860;2024-02-14T10:25:45;101542.22;;;11.96;40.38
85376;BME280;75780;43.986;22.860;2024-02-14T10:28:10;101563.81;;;12.03;40.31
85376;BME280;75780;43.986;22.860;2024-02-14T10:30:36;101606.34;;;11.88;40.25
85376;BME280;75780;43.986;22.860;2024-02-14T10:33:03;101605.22;;;12.18;40.36
85376;BME280;75780;43.986;22.860;2024-02-14T10:35:30;101600.19;;;12.00;39.47
85376;BME280;75780;43.986;22.860;2024-02-14T10:38:00;101598.22;;;12.25;39.65
85376;BME280;75780;43.986;22.860;2024-02-14T10:40:28;101607.53;;;12.47;40.12
85376;BME280;75780;43.986;22.860;2024-02-14T10:42:54;101609.16;;;12.57;39.39
85376;BME280;75780;43.986;22.860;2024-02-14T10:45:20;101587.81;;;12.28;39.50
85376;BME280;75780;43.986;22.860;2024-02-14T10:47:47;101590.25;;;12.43;39.77
85376;BME280;75780;43.986;22.860;2024-02-14T10:50:15;101594.44;;;12.53;38.35
85376;BME280;75780;43.986;22.860;2024-02-14T10:52:41;101590.41;;;12.28;37.80
85376;BME280;75780;43.986;22.860;2024-02-14T10:55:08;101599.13;;;12.24;38.63
85376;BME280;75780;43.986;22.860;2024-02-14T10:57:34;101543.84;;;12.08;38.78
85376;BME280;75780;43.986;22.860;2024-02-14T11:00:05;101593.06;;;12.22;39.03
85376;BME280;75780;43.986;22.860;2024-02-14T11:02:32;101588.88;;;12.05;38.66
85376;BME280;75780;43.986;22.860;2024-02-14T11:04:59;101605.34;;;12.04;40.06
85376;BME280;75780;43.986;22.860;2024-02-14T11:07:27;101600.13;;;12.09;38.54
85376;BME280;75780;43.986;22.860;2024-02-14T11:10:04;101580.13;;;12.19;38.74
85376;BME280;75780;43.986;22.860;2024-02-14T11:12:34;101599.97;;;12.23;38.23
85376;BME280;75780;43.986;22.860;2024-02-14T11:15:02;101556.25;;;11.76;37.79
85376;BME280;75780;43.986;22.860;2024-02-14T11:17:34;101577.34;;;12.34;37.23
85376;BME280;75780;43.986;22.860;2024-02-14T11:19:59;101542.13;;;12.05;37.37
85376;BME280;75780;43.986;22.860;2024-02-14T11:22:24;101588.50;;;12.45;38.25
85376;BME280;75780;43.986;22.860;2024-02-14T11:24:51;101554.88;;;12.30;36.69
85376;BME280;75780;43.986;22.860;2024-02-14T11:27:18;101587.66;;;12.43;37.62
85376;BME280;75780;43.986;22.860;2024-02-14T11:29:53;101540.13;;;12.29;37.29
85376;BME280;75780;43.986;22.860;2024-02-14T11:32:19;101584.88;;;12.55;36.11
85376;BME280;75780;43.986;22.860;2024-02-14T11:34:54;101596.19;;;12.54;36.80
85376;BME280;75780;43.986;22.860;2024-02-14T11:37:30;101583.31;;;12.42;36.44
85376;BME280;75780;43.986;22.860;2024-02-14T11:39:56;101520.41;;;12.13;36.56
85376;BME280;75780;43.986;22.860;2024-02-14T11:42:23;101584.03;;;12.53;36.92
85376;BME280;75780;43.986;22.860;2024-02-14T11:44:49;101579.88;;;12.40;36.85
85376;BME280;75780;43.986;22.860;2024-02-14T11:47:14;101578.13;;;12.42;36.20
85376;BME280;75780;43.986;22.860;2024-02-14T11:49:40;101575.53;;;12.39;36.45
85376;BME280;75780;43.986;22.860;2024-02-14T11:52:09;101579.53;;;12.67;35.95
85376;BME280;75780;43.986;22.860;2024-02-14T11:54:35;101549.34;;;12.55;35.65
85376;BME280;75780;43.986;22.860;2024-02-14T11:57:00;101544.53;;;12.22;36.83
85376;BME280;75780;43.986;22.860;2024-02-14T11:59:26;101581.78;;;12.97;36.52
85376;BME280;75780;43.986;22.860;2024-02-14T12:01:51;101589.13;;;12.63;36.46
85376;BME280;75780;43.986;22.860;2024-02-14T12:04:19;101577.88;;;12.63;36.15
85376;BME280;75780;43.986;22.860;2024-02-14T12:06:45;101595.88;;;12.81;36.09
85376;BME280;75780;43.986;22.860;2024-02-14T12:09:11;101593.28;;;12.78;36.47
85376;BME280;75780;43.986;22.860;2024-02-14T12:11:39;101593.13;;;12.90;35.46
85376;BME280;75780;43.986;22.860;2024-02-14T12:14:08;101582.22;;;12.61;36.01
85376;BME280;75780;43.986;22.860;2024-02-14T12:16:34;101562.41;;;12.51;35.92
85376;BME280;75780;43.986;22.860;2024-02-14T12:19:14;101534.78;;;12.41;35.66
85376;BME280;75780;43.986;22.860;2024-02-14T12:21:44;101534.16;;;12.22;35.87
85376;BME280;75780;43.986;22.860;2024-02-14T12:24:10;101591.16;;;12.37;34.97
85376;BME280;75780;43.986;22.860;2024-02-14T12:26:38;101550.75;;;12.07;35.73
85376;BME280;75780;43.986;22.860;2024-02-14T12:29:04;101540.09;;;12.32;36.11
85376;BME280;75780;43.986;22.860;2024-02-14T12:31:30;101561.06;;;12.15;35.15
85376;BME280;75780;43.986;22.860;2024-02-14T12:33:59;101587.44;;;12.61;34.70
85376;BME280;75780;43.986;22.860;2024-02-14T12:36:28;101540.31;;;12.12;36.40
85376;BME280;75780;43.986;22.860;2024-02-14T12:38:54;101522.19;;;12.07;35.81
85376;BME280;75780;43.986;22.860;2024-02-14T12:41:20;101571.41;;;12.23;36.43
85376;BME280;75780;43.986;22.860;2024-02-14T12:43:47;101569.44;;;12.41;35.78